sensor_id;sensor_type;location;lat;lon;timestamp;P1;durP1;ratioP1;P2;durP2;ratioP2
77026;SDS011;65956;52.986;17.490;2023-09-08T00:00:58;15.70;;;12.60;;
77026;SDS011;65956;52.986;17.490;2023-09-08T00:03:30;17.50;;;12.60;;
77026;SDS011;65956;52.986;17.490;2023-09-08T00:05:56;15.40;;;11.80;;
77026;SDS011;65956;52.986;17.490;2023-09-08T00:08:22;17.20;;;12.60;;
77026;SDS011;65956;52.986;17.490;2023-09-08T00:10:49;16.90;;;11.80;;
77026;SDS011;65956;52.986;17.490;2023-09-08T00:13:15;15.10;;;12.70;;
77026;SDS011;65956;52.986;17.490;2023-09-08T00:15:41;20.30;;;12.30;;
77026;SDS011;65956;52.986;17.490;2023-09-08T00:18:07;17.90;;;12.80;;
77026;SDS011;65956;52.986;17.490;2023-09-08T00:20:33;17.20;;;12.40;;
77026;SDS011;65956;52.986;17.490;2023-09-08T00:23:00;17.80;;;12.70;;
77026;SDS011;65956;52.986;17.490;2023-09-08T00:25:26;16.50;;;13.40;;
77026;SDS011;65956;52.986;17.490;2023-09-08T00:27:52;15.70;;;13.00;;
77026;SDS011;65956;52.986;17.490;2023-09-08T00:30:18;18.00;;;12.90;;
77026;SDS011;65956;52.986;17.490;2023-09-08T00:32:44;16.50;;;13.50;;
77026;SDS011;65956;52.986;17.490;2023-09-08T00:35:11;17.20;;;12.80;;
77026;SDS011;65956;52.986;17.490;2023-09-08T00:37:39;16.90;;;13.60;;
77026;SDS011;65956;52.986;17.490;2023-09-08T00:40:06;16.30;;;12.30;;
77026;SDS011;65956;52.986;17.490;2023-09-08T00:42:34;16.90;;;13.50;;
77026;SDS011;65956;52.986;17.490;2023-09-08T00:45:00;19.40;;;13.50;;
77026;SDS011;65956;52.986;17.490;2023-09-08T00:47:26;15.80;;;13.20;;
77026;SDS011;65956;52.986;17.490;2023-09-08T00:49:52;16.30;;;13.80;;
77026;SDS011;65956;52.986;17.490;2023-09-08T00:52:18;18.10;;;14.40;;
77026;SDS011;65956;52.986;17.490;2023-09-08T00:54:44;20.20;;;14.50;;
77026;SDS011;65956;52.986;17.490;2023-09-08T00:57:10;18.90;;;14.70;;
77026;SDS011;65956;52.986;17.490;2023-09-08T00:59:36;17.50;;;15.70;;
77026;SDS011;65956;52.986;17.490;2023-09-08T01:02:03;18.90;;;15.20;;
77026;SDS011;65956;52.986;17.490;2023-09-08T01:04:31;19.80;;;15.00;;
77026;SDS011;65956;52.986;17.490;2023-09-08T01:06:59;17.50;;;15.50;;
77026;SDS011;65956;52.986;17.490;2023-09-08T01:09:26;18.00;;;14.80;;
77026;SDS011;65956;52.986;17.490;2023-09-08T01:11:53;16.60;;;14.70;;
77026;SDS011;65956;52.986;17.490;2023-09-08T01:14:21;19.20;;;14.50;;
77026;SDS011;65956;52.986;17.490;2023-09-08T01:16:47;21.80;;;15.70;;
77026;SDS011;65956;52.986;17.490;2023-09-08T01:19:14;22.00;;;16.60;;
77026;SDS011;65956;52.986;17.490;2023-09-08T01:21:51;21.70;;;16.20;;
77026;SDS011;65956;52.986;17.490;2023-09-08T01:24:41;22.30;;;17.00;;
77026;SDS011;65956;52.986;17.490;2023-09-08T01:27:27;19.50;;;16.00;;
77026;SDS011;65956;52.986;17.490;2023-09-08T01:29:55;20.40;;;16.20;;
77026;SDS011;65956;52.986;17.490;2023-09-08T01:32:22;19.50;;;15.60;;
77026;SDS011;65956;52.986;17.490;2023-09-08T01:34:48;18.90;;;14.70;;
77026;SDS011;65956;52.986;17.490;2023-09-08T01:37:14;21.00;;;16.70;;
77026;SDS011;65956;52.986;17.490;2023-09-08T01:39:40;20.50;;;16.70;;
77026;SDS011;65956;52.986;17.490;2023-09-08T01:42:06;20.90;;;17.00;;
77026;SDS011;65956;52.986;17.490;2023-09-08T01:44:32;20.20;;;16.60;;
77026;SDS011;65956;52.986;17.490;2023-09-08T01:46:58;20.30;;;17.10;;
77026;SDS011;65956;52.986;17.490;2023-09-08T01:49:24;19.80;;;15.90;;
77026;SDS011;65956;52.986;17.490;2023-09-08T01:51:50;17.90;;;14.90;;
77026;SDS011;65956;52.986;17.490;2023-09-08T01:54:17;22.50;;;16.80;;
77026;SDS011;65956;52.986;17.490;2023-09-08T01:56:43;20.70;;;16.00;;
77026;SDS011;65956;52.986;17.490;2023-09-08T01:59:09;19.90;;;15.80;;
77026;SDS011;65956;52.986;17.490;2023-09-08T02:01:36;19.50;;;15.10;;
77026;SDS011;65956;52.986;17.490;2023-09-08T02:04:02;19.20;;;16.30;;
77026;SDS011;65956;52.986;17.490;2023-09-08T02:06:28;17.50;;;14.20;;
77026;SDS011;65956;52.986;17.490;2023-09-08T02:08:54;18.70;;;15.30;;
77026;SDS011;65956;52.986;17.490;2023-09-08T02:11:20;16.80;;;14.40;;
77026;SDS011;65956;52.986;17.490;2023-09-08T02:13:48;19.30;;;15.50;;
77026;SDS011;65956;52.986;17.490;2023-09-08T02:16:14;18.60;;;15.50;;
77026;SDS011;65956;52.986;17.490;2023-09-08T02:18:42;16.70;;;13.60;;
77026;SDS011;65956;52.986;17.490;2023-09-08T02:21:08;19.90;;;15.50;;
77026;SDS011;65956;52.986;17.490;2023-09-08T02:23:34;18.60;;;15.70;;
77026;SDS011;65956;52.986;17.490;2023-09-08T02:26:00;19.50;;;15.70;;
77026;SDS011;65956;52.986;17.490;2023-09-08T02:28:26;23.10;;;17.20;;
77026;SDS011;65956;52.986;17.490;2023-09-08T02:30:53;21.00;;;16.10;;
77026;SDS011;65956;52.986;17.490;2023-09-08T02:33:20;22.00;;;18.20;;
77026;SDS011;65956;52.986;17.490;2023-09-08T02:35:46;22.70;;;17.10;;
77026;SDS011;65956;52.986;17.490;2023-09-08T02:38:13;21.20;;;17.00;;
77026;SDS011;65956;52.986;17.490;2023-09-08T02:40:39;21.70;;;18.00;;
77026;SDS011;65956;52.986;17.490;2023-09-08T02:43:05;22.50;;;19.60;;
77026;SDS011;65956;52.986;17.490;2023-09-08T02:45:31;22.20;;;18.50;;
77026;SDS011;65956;52.986;17.490;2023-09-08T02:47:57;23.90;;;18.50;;
77026;SDS011;65956;52.986;17.490;2023-09-08T02:50:23;20.30;;;17.90;;
77026;SDS011;65956;52.986;17.490;2023-09-08T02:52:49;22.60;;;18.90;;
77026;SDS011;65956;52.986;17.490;2023-09-08T02:55:15;21.40;;;18.00;;
77026;SDS011;65956;52.986;17.490;2023-09-08T02:57:42;22.70;;;19.10;;
77026;SDS011;65956;52.986;17.490;2023-09-08T03:00:08;20.20;;;16.20;;
77026;SDS011;65956;52.986;17.490;2023-09-08T03:02:34;22.10;;;16.70;;
77026;SDS011;65956;52.986;17.490;2023-09-08T03:05:01;21.40;;;17.60;;
77026;SDS011;65956;52.986;17.490;2023-09-08T03:07:28;22.20;;;17.10;;
77026;SDS011;65956;52.986;17.490;2023-09-08T03:09:54;22.00;;;17.50;;
77026;SDS011;65956;52.986;17.490;2023-09-08T03:12:20;22.90;;;18.00;;
77026;SDS011;65956;52.986;17.490;2023-09-08T03:14:46;23.80;;;18.60;;
77026;SDS011;65956;52.986;17.490;2023-09-08T03:17:12;23.10;;;18.50;;
77026;SDS011;65956;52.986;17.490;2023-09-08T03:19:39;24.20;;;18.70;;
77026;SDS011;65956;52.986;17.490;2023-09-08T03:22:06;23.90;;;19.10;;
77026;SDS011;65956;52.986;17.490;2023-09-08T03:24:32;21.90;;;18.50;;
77026;SDS011;65956;52.986;17.490;2023-09-08T03:26:58;22.80;;;17.50;;
77026;SDS011;65956;52.986;17.490;2023-09-08T03:29:24;23.60;;;18.30;;
77026;SDS011;65956;52.986;17.490;2023-09-08T03:31:51;24.00;;;17.50;;
77026;SDS011;65956;52.986;17.490;2023-09-08T03:34:17;23.10;;;18.10;;
77026;SDS011;65956;52.986;17.490;2023-09-08T03:36:46;22.00;;;17.10;;
77026;SDS011;65956;52.986;17.490;2023-09-08T03:39:13;22.20;;;17.20;;
77026;SDS011;65956;52.986;17.490;2023-09-08T03:41:39;25.70;;;17.80;;
77026;SDS011;65956;52.986;17.490;2023-09-08T03:44:05;21.30;;;16.30;;
77026;SDS011;65956;52.986;17.490;2023-09-08T03:46:31;21.10;;;17.20;;
77026;SDS011;65956;52.986;17.490;2023-09-08T03:48:57;22.30;;;17.50;;
77026;SDS011;65956;52.986;17.490;2023-09-08T03:51:26;21.60;;;17.40;;
77026;SDS011;65956;52.986;17.490;2023-09-08T03:53:54;21.30;;;18.90;;
77026;SDS011;65956;52.986;17.490;2023-09-08T03:56:20;25.40;;;17.80;;
77026;SDS011;65956;52.986;17.490;2023-09-08T03:58:47;24.70;;;17.80;;
77026;SDS011;65956;52.986;17.490;2023-09-08T04:01:13;27.20;;;18.10;;
77026;SDS011;65956;52.986;17.490;2023-09-08T04:03:40;23.30;;;18.10;;
77026;SDS011;65956;52.986;17.490;2023-09-08T04:06:06;25.20;;;17.70;;
77026;SDS011;65956;52.986;17.490;2023-09-08T04:08:32;22.30;;;17.30;;
77026;SDS011;65956;52.986;17.490;2023-09-08T04:10:58;23.50;;;17.90;;
77026;SDS011;65956;52.986;17.490;2023-09-08T04:13:25;23.90;;;17.80;;
77026;SDS011;65956;52.986;17.490;2023-09-08T04:15:51;25.70;;;18.90;;
77026;SDS011;65956;52.986;17.490;2023-09-08T04:18:17;22.90;;;17.90;;
77026;SDS011;65956;52.986;17.490;2023-09-08T04:20:43;24.50;;;18.90;;
77026;SDS011;65956;52.986;17.490;2023-09-08T04:23:09;25.30;;;18.30;;
77026;SDS011;65956;52.986;17.490;2023-09-08T04:25:35;24.70;;;19.70;;
77026;SDS011;65956;52.986;17.490;2023-09-08T04:28:02;24.30;;;19.00;;
77026;SDS011;65956;52.986;17.490;2023-09-08T04:30:29;22.30;;;18.60;;
77026;SDS011;65956;52.986;17.490;2023-09-08T04:32:55;23.30;;;18.50;;
77026;SDS011;65956;52.986;17.490;2023-09-08T04:35:21;22.60;;;18.20;;
77026;SDS011;65956;52.986;17.490;2023-09-08T04:37:46;22.80;;;18.00;;
77026;SDS011;65956;52.986;17.490;2023-09-08T04:40:12;21.60;;;18.30;;
77026;SDS011;65956;52.986;17.490;2023-09-08T04:42:39;24.50;;;18.50;;
77026;SDS011;65956;52.986;17.490;2023-09-08T04:45:05;23.90;;;18.40;;
77026;SDS011;65956;52.986;17.490;2023-09-08T04:47:32;25.90;;;19.70;;
77026;SDS011;65956;52.986;17.490;2023-09-08T04:49:58;23.20;;;19.70;;
77026;SDS011;65956;52.986;17.490;2023-09-08T04:52:25;27.70;;;19.30;;
77026;SDS011;65956;52.986;17.490;2023-09-08T04:54:50;24.80;;;19.00;;
77026;SDS011;65956;52.986;17.490;2023-09-08T04:57:17;27.00;;;19.90;;
77026;SDS011;65956;52.986;17.490;2023-09-08T04:59:44;24.70;;;18.50;;
77026;SDS011;65956;52.986;17.490;2023-09-08T05:02:11;24.00;;;18.60;;
77026;SDS011;65956;52.986;17.490;2023-09-08T05:04:37;24.50;;;20.40;;
77026;SDS011;65956;52.986;17.490;2023-09-08T05:07:03;23.10;;;18.00;;
77026;SDS011;65956;52.986;17.490;2023-09-08T05:09:29;21.20;;;17.80;;
77026;SDS011;65956;52.986;17.490;2023-09-08T05:11:56;23.50;;;17.80;;
77026;SDS011;65956;52.986;17.490;2023-09-08T05:14:22;25.40;;;18.40;;
77026;SDS011;65956;52.986;17.490;2023-09-08T05:16:51;22.30;;;18.40;;
77026;SDS011;65956;52.986;17.490;2023-09-08T05:19:22;22.10;;;17.40;;
77026;SDS011;65956;52.986;17.490;2023-09-08T05:21:53;21.70;;;17.50;;
77026;SDS011;65956;52.986;17.490;2023-09-08T05:24:20;25.90;;;18.00;;
77026;SDS011;65956;52.986;17.490;2023-09-08T05:26:46;21.10;;;17.70;;
77026;SDS011;65956;52.986;17.490;2023-09-08T05:29:13;21.50;;;18.40;;
77026;SDS011;65956;52.986;17.490;2023-09-08T05:31:39;21.10;;;17.40;;
77026;SDS011;65956;52.986;17.490;2023-09-08T05:34:05;24.60;;;19.60;;
77026;SDS011;65956;52.986;17.490;2023-09-08T05:36:31;21.10;;;17.70;;
77026;SDS011;65956;52.986;17.490;2023-09-08T05:39:00;21.50;;;16.70;;
77026;SDS011;65956;52.986;17.490;2023-09-08T05:41:26;19.10;;;15.90;;
77026;SDS011;65956;52.986;17.490;2023-09-08T05:43:52;18.30;;;15.50;;
77026;SDS011;65956;52.986;17.490;2023-09-08T05:46:18;21.40;;;15.80;;
77026;SDS011;65956;52.986;17.490;2023-09-08T05:48:44;21.30;;;16.60;;
77026;SDS011;65956;52.986;17.490;2023-09-08T05:51:11;20.20;;;17.10;;
77026;SDS011;65956;52.986;17.490;2023-09-08T05:53:37;24.40;;;17.30;;
77026;SDS011;65956;52.986;17.490;2023-09-08T05:56:06;21.50;;;16.50;;
77026;SDS011;65956;52.986;17.490;2023-09-08T05:58:33;23.50;;;18.00;;
77026;SDS011;65956;52.986;17.490;2023-09-08T06:01:03;20.00;;;16.00;;
77026;SDS011;65956;52.986;17.490;2023-09-08T06:03:30;19.10;;;16.00;;
77026;SDS011;65956;52.986;17.490;2023-09-08T06:05:57;18.30;;;15.60;;
77026;SDS011;65956;52.986;17.490;2023-09-08T06:08:23;18.80;;;15.40;;
77026;SDS011;65956;52.986;17.490;2023-09-08T06:10:49;20.70;;;16.10;;
77026;SDS011;65956;52.986;17.490;2023-09-08T06:13:15;20.70;;;14.90;;
77026;SDS011;65956;52.986;17.490;2023-09-08T06:15:42;20.30;;;14.70;;
77026;SDS011;65956;52.986;17.490;2023-09-08T06:18:08;18.30;;;14.70;;
77026;SDS011;65956;52.986;17.490;2023-09-08T06:20:34;17.90;;;14.40;;
77026;SDS011;65956;52.986;17.490;2023-09-08T06:23:01;16.50;;;14.70;;
77026;SDS011;65956;52.986;17.490;2023-09-08T06:25:27;18.10;;;15.30;;
77026;SDS011;65956;52.986;17.490;2023-09-08T06:27:54;18.70;;;14.20;;
77026;SDS011;65956;52.986;17.490;2023-09-08T06:30:20;20.90;;;14.90;;
77026;SDS011;65956;52.986;17.490;2023-09-08T06:32:46;17.30;;;14.40;;
77026;SDS011;65956;52.986;17.490;2023-09-08T06:35:12;17.30;;;15.10;;
77026;SDS011;65956;52.986;17.490;2023-09-08T06:37:39;19.60;;;14.10;;
77026;SDS011;65956;52.986;17.490;2023-09-08T06:40:06;16.50;;;14.60;;
77026;SDS011;65956;52.986;17.490;2023-09-08T06:42:33;18.60;;;14.20;;
77026;SDS011;65956;52.986;17.490;2023-09-08T06:45:07;15.90;;;13.90;;
77026;SDS011;65956;52.986;17.490;2023-09-08T06:47:33;16.70;;;13.60;;
77026;SDS011;65956;52.986;17.490;2023-09-08T06:49:59;16.20;;;13.80;;
77026;SDS011;65956;52.986;17.490;2023-09-08T06:52:25;16.60;;;14.00;;
77026;SDS011;65956;52.986;17.490;2023-09-08T06:54:51;17.00;;;13.60;;
77026;SDS011;65956;52.986;17.490;2023-09-08T06:57:18;15.80;;;13.20;;
77026;SDS011;65956;52.986;17.490;2023-09-08T06:59:45;16.70;;;12.80;;
77026;SDS011;65956;52.986;17.490;2023-09-08T07:02:11;18.30;;;13.60;;
77026;SDS011;65956;52.986;17.490;2023-09-08T07:04:38;15.30;;;13.00;;
77026;SDS011;65956;52.986;17.490;2023-09-08T07:07:04;14.40;;;13.00;;
77026;SDS011;65956;52.986;17.490;2023-09-08T07:09:34;16.20;;;13.50;;
77026;SDS011;65956;52.986;17.490;2023-09-08T07:12:02;17.50;;;13.30;;
77026;SDS011;65956;52.986;17.490;2023-09-08T07:14:32;17.00;;;13.50;;
77026;SDS011;65956;52.986;17.490;2023-09-08T07:16:58;21.40;;;13.90;;
77026;SDS011;65956;52.986;17.490;2023-09-08T07:19:25;17.10;;;13.60;;
77026;SDS011;65956;52.986;17.490;2023-09-08T07:21:52;16.80;;;12.50;;
77026;SDS011;65956;52.986;17.490;2023-09-08T07:24:18;16.80;;;13.20;;
77026;SDS011;65956;52.986;17.490;2023-09-08T07:26:44;15.50;;;12.90;;
77026;SDS011;65956;52.986;17.490;2023-09-08T07:29:10;16.00;;;13.10;;
77026;SDS011;65956;52.986;17.490;2023-09-08T07:31:37;14.40;;;11.80;;
77026;SDS011;65956;52.986;17.490;2023-09-08T07:34:04;13.80;;;11.90;;
77026;SDS011;65956;52.986;17.490;2023-09-08T07:36:30;14.20;;;12.70;;
77026;SDS011;65956;52.986;17.490;2023-09-08T07:38:57;15.30;;;12.40;;
77026;SDS011;65956;52.986;17.490;2023-09-08T07:41:24;13.70;;;10.10;;
77026;SDS011;65956;52.986;17.490;2023-09-08T07:43:50;13.00;;;10.50;;
77026;SDS011;65956;52.986;17.490;2023-09-08T07:46:19;11.00;;;7.80;;
77026;SDS011;65956;52.986;17.490;2023-09-08T07:48:45;10.80;;;7.30;;
77026;SDS011;65956;52.986;17.490;2023-09-08T07:51:11;10.70;;;7.40;;
77026;SDS011;65956;52.986;17.490;2023-09-08T07:53:37;11.20;;;7.40;;
77026;SDS011;65956;52.986;17.490;2023-09-08T07:56:03;11.30;;;8.50;;
77026;SDS011;65956;52.986;17.490;2023-09-08T07:58:29;11.40;;;9.20;;
77026;SDS011;65956;52.986;17.490;2023-09-08T08:00:55;11.30;;;9.00;;
77026;SDS011;65956;52.986;17.490;2023-09-08T08:03:21;10.30;;;7.60;;
77026;SDS011;65956;52.986;17.490;2023-09-08T08:05:48;13.60;;;8.70;;
77026;SDS011;65956;52.986;17.490;2023-09-08T08:08:14;10.80;;;8.30;;
77026;SDS011;65956;52.986;17.490;2023-09-08T08:10:42;12.70;;;8.10;;
77026;SDS011;65956;52.986;17.490;2023-09-08T08:13:08;11.60;;;9.10;;
77026;SDS011;65956;52.986;17.490;2023-09-08T08:15:38;9.50;;;7.10;;
77026;SDS011;65956;52.986;17.490;2023-09-08T08:18:06;9.00;;;7.00;;
77026;SDS011;65956;52.986;17.490;2023-09-08T08:20:32;9.80;;;8.00;;
77026;SDS011;65956;52.986;17.490;2023-09-08T08:23:02;10.90;;;7.80;;
77026;SDS011;65956;52.986;17.490;2023-09-08T08:25:29;11.70;;;7.60;;
77026;SDS011;65956;52.986;17.490;2023-09-08T08:27:55;26.00;;;13.00;;
77026;SDS011;65956;52.986;17.490;2023-09-08T08:30:22;10.80;;;6.90;;
77026;SDS011;65956;52.986;17.490;2023-09-08T08:32:48;21.30;;;11.80;;
77026;SDS011;65956;52.986;17.490;2023-09-08T08:35:17;17.50;;;9.50;;
77026;SDS011;65956;52.986;17.490;2023-09-08T08:37:43;8.90;;;6.20;;
77026;SDS011;65956;52.986;17.490;2023-09-08T08:40:09;10.20;;;6.70;;
77026;SDS011;65956;52.986;17.490;2023-09-08T08:42:38;8.60;;;6.70;;
77026;SDS011;65956;52.986;17.490;2023-09-08T08:45:05;29.00;;;13.90;;
77026;SDS011;65956;52.986;17.490;2023-09-08T08:47:32;75.80;;;30.70;;
77026;SDS011;65956;52.986;17.490;2023-09-08T08:49:59;32.20;;;14.50;;
77026;SDS011;65956;52.986;17.490;2023-09-08T08:52:26;7.70;;;4.70;;
77026;SDS011;65956;52.986;17.490;2023-09-08T08:54:53;7.00;;;4.40;;
77026;SDS011;65956;52.986;17.490;2023-09-08T08:57:23;8.20;;;4.80;;
77026;SDS011;65956;52.986;17.490;2023-09-08T08:59:49;9.00;;;5.10;;
77026;SDS011;65956;52.986;17.490;2023-09-08T09:02:17;8.50;;;5.30;;
77026;SDS011;65956;52.986;17.490;2023-09-08T09:04:44;7.30;;;5.10;;
77026;SDS011;65956;52.986;17.490;2023-09-08T09:07:12;11.00;;;6.20;;
77026;SDS011;65956;52.986;17.490;2023-09-08T09:09:39;7.10;;;4.70;;
77026;SDS011;65956;52.986;17.490;2023-09-08T09:12:05;7.10;;;4.50;;
77026;SDS011;65956;52.986;17.490;2023-09-08T09:14:32;7.80;;;4.70;;
77026;SDS011;65956;52.986;17.490;2023-09-08T09:16:59;6.30;;;4.60;;
77026;SDS011;65956;52.986;17.490;2023-09-08T09:19:30;6.20;;;4.00;;
77026;SDS011;65956;52.986;17.490;2023-09-08T09:21:57;6.30;;;4.20;;
77026;SDS011;65956;52.986;17.490;2023-09-08T09:24:28;8.10;;;4.20;;
77026;SDS011;65956;52.986;17.490;2023-09-08T09:27:02;4.90;;;3.70;;
77026;SDS011;65956;52.986;17.490;2023-09-08T09:29:31;5.80;;;3.90;;
77026;SDS011;65956;52.986;17.490;2023-09-08T09:31:58;5.60;;;4.00;;
77026;SDS011;65956;52.986;17.490;2023-09-08T09:34:29;6.20;;;3.90;;
77026;SDS011;65956;52.986;17.490;2023-09-08T09:36:56;7.00;;;4.50;;
77026;SDS011;65956;52.986;17.490;2023-09-08T09:39:23;6.80;;;4.30;;
77026;SDS011;65956;52.986;17.490;2023-09-08T09:41:53;5.80;;;3.70;;
77026;SDS011;65956;52.986;17.490;2023-09-08T09:44:21;6.00;;;3.90;;
77026;SDS011;65956;52.986;17.490;2023-09-08T09:46:48;5.20;;;3.90;;
77026;SDS011;65956;52.986;17.490;2023-09-08T09:49:14;7.90;;;4.30;;
77026;SDS011;65956;52.986;17.490;2023-09-08T09:51:45;7.70;;;4.80;;
77026;SDS011;65956;52.986;17.490;2023-09-08T09:54:13;6.60;;;3.70;;
77026;SDS011;65956;52.986;17.490;2023-09-08T09:56:41;5.30;;;3.40;;
77026;SDS011;65956;52.986;17.490;2023-09-08T09:59:08;5.40;;;3.70;;
77026;SDS011;65956;52.986;17.490;2023-09-08T10:01:36;7.50;;;4.10;;
77026;SDS011;65956;52.986;17.490;2023-09-08T10:04:03;6.00;;;3.20;;
77026;SDS011;65956;52.986;17.490;2023-09-08T10:06:31;5.00;;;3.90;;
77026;SDS011;65956;52.986;17.490;2023-09-08T10:11:34;6.20;;;3.80;;
77026;SDS011;65956;52.986;17.490;2023-09-08T10:14:07;8.50;;;3.70;;
77026;SDS011;65956;52.986;17.490;2023-09-08T10:16:38;5.90;;;3.80;;
77026;SDS011;65956;52.986;17.490;2023-09-08T10:19:09;7.20;;;3.40;;
77026;SDS011;65956;52.986;17.490;2023-09-08T10:21:42;6.30;;;3.80;;
77026;SDS011;65956;52.986;17.490;2023-09-08T10:24:15;6.20;;;3.90;;
77026;SDS011;65956;52.986;17.490;2023-09-08T10:26:53;6.80;;;3.60;;
77026;SDS011;65956;52.986;17.490;2023-09-08T10:29:26;6.70;;;3.90;;
77026;SDS011;65956;52.986;17.490;2023-09-08T10:31:54;7.00;;;3.60;;
77026;SDS011;65956;52.986;17.490;2023-09-08T10:34:21;6.10;;;3.70;;
77026;SDS011;65956;52.986;17.490;2023-09-08T10:36:50;4.70;;;3.30;;
77026;SDS011;65956;52.986;17.490;2023-09-08T10:39:27;5.40;;;3.50;;
77026;SDS011;65956;52.986;17.490;2023-09-08T10:42:41;4.90;;;3.40;;
77026;SDS011;65956;52.986;17.490;2023-09-08T10:47:26;5.60;;;3.70;;
77026;SDS011;65956;52.986;17.490;2023-09-08T10:50:07;5.10;;;3.50;;
77026;SDS011;65956;52.986;17.490;2023-09-08T10:52:34;8.00;;;3.90;;
77026;SDS011;65956;52.986;17.490;2023-09-08T10:55:01;5.30;;;3.40;;
77026;SDS011;65956;52.986;17.490;2023-09-08T10:57:27;5.10;;;3.20;;
77026;SDS011;65956;52.986;17.490;2023-09-08T11:00:00;5.40;;;2.90;;
77026;SDS011;65956;52.986;17.490;2023-09-08T11:02:49;5.10;;;2.50;;
77026;SDS011;65956;52.986;17.490;2023-09-08T11:05:16;5.10;;;3.20;;
77026;SDS011;65956;52.986;17.490;2023-09-08T11:07:44;5.00;;;2.80;;
77026;SDS011;65956;52.986;17.490;2023-09-08T11:10:12;5.60;;;3.10;;
77026;SDS011;65956;52.986;17.490;2023-09-08T11:12:38;6.20;;;3.10;;
77026;SDS011;65956;52.986;17.490;2023-09-08T11:15:05;5.10;;;3.00;;
